»·PEaware :: WAT1252 KBUR-KVGT

WAT1252 :: KBUR-KVGT

FLIGHT INFORMATION

Flight Status: Arrived
Operator:
Walker Air Transport
More flights by this operator :: More flights under this callsign
Pilot: David D. (37029)
Aircraft: PIPER PA-31/31P NAVAJO CHIEFTAIN
(PA31)
More flights by this aircraft type
Origin: KBUR Bob Hope-Burbank
United States
Destination: KVGT North Las Vegas
United States
More flights between these airports :: More routes between these airports
Route: VNY3 DAG V587 DANBY T359 DICSA
File this flight plan on PilotEdge
Remarks:
Altitude:
(Current/Filed)
11,000ft
Speed:
(Current/Filed)
165kts
Departed: 04-Jul-23 12:51 PM
Arrived: 04-Jul-23 02:23 PM
Distance/Time
Traveled:
196nm/1:32
Distance/Time
To Go:
Arrived

Flight Plot

Page will automatically refresh every two minutes.

Flight plan parsing failed; only flown route is shown


Map Options




Map Legend


Flown Route
Filed Route
Departure Airport
Arrival Airport
Navaid (VOR, NDB)
Fix

Horizontal Profiles

Position Reports

Time Latitude Longitude Heading Altitude Ground
Speed
04-Jul-23 12:18 34.200209 -118.358857 280 725ft 0kts
04-Jul-23 12:19 34.200209 -118.358857 280 725ft 0kts
04-Jul-23 12:20 34.200209 -118.358857 280 725ft 0kts
04-Jul-23 12:21 34.200209 -118.358857 280 725ft 0kts
04-Jul-23 12:22 34.200209 -118.358857 280 725ft 0kts
04-Jul-23 12:23 34.200209 -118.358857 280 725ft 0kts
04-Jul-23 12:24 34.200209 -118.358857 280 725ft 0kts
04-Jul-23 12:25 34.200209 -118.358857 280 725ft 0kts
04-Jul-23 12:26 34.200209 -118.358857 280 725ft 0kts
04-Jul-23 12:27 34.200209 -118.358857 280 725ft 0kts
04-Jul-23 12:28 34.200209 -118.358858 280 725ft 0kts
04-Jul-23 12:29 34.200209 -118.358858 280 725ft 0kts
04-Jul-23 12:30 34.200209 -118.358858 280 725ft 0kts
04-Jul-23 12:31 34.200209 -118.358857 280 725ft 0kts
04-Jul-23 12:32 34.200209 -118.358858 280 725ft 0kts
04-Jul-23 12:33 34.200209 -118.358858 280 725ft 0kts
04-Jul-23 12:34 34.200209 -118.358858 280 725ft 0kts
04-Jul-23 12:35 34.200209 -118.358857 280 725ft 0kts
04-Jul-23 12:36 34.200209 -118.358858 280 725ft 0kts
04-Jul-23 12:37 34.200209 -118.358858 280 725ft 0kts
04-Jul-23 12:38 34.200209 -118.358857 280 725ft 0kts
04-Jul-23 12:39 34.200209 -118.358857 280 725ft 0kts
04-Jul-23 12:40 34.200209 -118.358858 280 725ft 0kts
04-Jul-23 12:41 34.200209 -118.358858 280 725ft 0kts
04-Jul-23 12:42 34.200178 -118.359045 236 726ft 2kts
04-Jul-23 12:43 34.199906 -118.358193 347 723ft 8kts
04-Jul-23 12:44 34.202688 -118.358964 347 737ft 13kts
04-Jul-23 12:45 34.205851 -118.359836 347 752ft 12kts
04-Jul-23 12:46 34.209102 -118.360735 346 768ft 10kts
04-Jul-23 12:47 34.211432 -118.361279 30 777ft 0kts
04-Jul-23 12:48 34.211432 -118.361279 30 777ft 0kts
04-Jul-23 12:49 34.211432 -118.361279 30 777ft 0kts
04-Jul-23 12:50 34.207836 -118.359227 166 762ft 78kts
04-Jul-23 12:51 34.187097 -118.369376 219 1908ft 106kts
04-Jul-23 12:52 34.166465 -118.398656 224 2881ft 121kts
04-Jul-23 12:53 34.168012 -118.433182 347 3761ft 138kts
04-Jul-23 12:54 34.205067 -118.445909 349 4670ft 139kts
04-Jul-23 12:55 34.242435 -118.459025 349 5597ft 141kts
04-Jul-23 12:56 34.279874 -118.472322 348 6555ft 139kts
04-Jul-23 12:57 34.316577 -118.486647 348 7513ft 138kts
04-Jul-23 12:58 34.336863 -118.470954 118 8443ft 115kts
04-Jul-23 12:59 34.313088 -118.444640 136 9369ft 116kts
04-Jul-23 13:00 34.284510 -118.450374 262 10351ft 140kts
04-Jul-23 13:01 34.307694 -118.472237 51 10986ft 131kts
04-Jul-23 13:02 34.325254 -118.430093 72 10974ft 152kts
04-Jul-23 13:03 34.353852 -118.388883 36 10960ft 175kts
04-Jul-23 13:04 34.398775 -118.364626 29 10971ft 175kts
04-Jul-23 13:05 34.442991 -118.342272 29 10965ft 170kts
04-Jul-23 13:06 34.478108 -118.309551 60 10949ft 159kts
04-Jul-23 13:07 34.505465 -118.265411 60 10943ft 168kts
04-Jul-23 13:08 34.534018 -118.219708 60 10936ft 169kts
04-Jul-23 13:09 34.562222 -118.174580 60 10934ft 167kts
04-Jul-23 13:10 34.590276 -118.129643 60 10939ft 167kts
04-Jul-23 13:11 34.618203 -118.084845 60 10944ft 167kts
04-Jul-23 13:12 34.634796 -118.035449 87 10940ft 157kts
04-Jul-23 13:13 34.640315 -117.982842 87 10933ft 157kts
04-Jul-23 13:14 34.646026 -117.930207 87 10924ft 157kts
04-Jul-23 13:16 34.651775 -117.877412 87 10915ft 157kts
04-Jul-23 13:17 34.657478 -117.824830 87 10907ft 157kts
04-Jul-23 13:18 34.663145 -117.772397 87 10915ft 156kts
04-Jul-23 13:19 34.675009 -117.721024 78 10924ft 158kts
04-Jul-23 13:20 34.688076 -117.670149 78 10933ft 158kts
04-Jul-23 13:21 34.701100 -117.619352 77 10945ft 157kts
04-Jul-23 13:22 34.714022 -117.568827 77 10952ft 156kts
04-Jul-23 13:23 34.726947 -117.518206 77 10952ft 157kts
04-Jul-23 13:24 34.740035 -117.466841 77 10952ft 160kts
04-Jul-23 13:25 34.753188 -117.415131 77 10952ft 161kts
04-Jul-23 13:26 34.766406 -117.363049 77 10951ft 161kts
04-Jul-23 13:27 34.779777 -117.310256 78 10949ft 162kts
04-Jul-23 13:28 34.793121 -117.257469 78 10938ft 162kts
04-Jul-23 13:29 34.806557 -117.204227 78 10922ft 163kts
04-Jul-23 13:30 34.820001 -117.150818 78 10903ft 163kts
04-Jul-23 13:31 34.833486 -117.097138 78 10883ft 164kts
04-Jul-23 13:32 34.847038 -117.043067 78 10870ft 167kts
04-Jul-23 13:33 34.860525 -116.989172 77 10952ft 166kts
04-Jul-23 13:34 34.874350 -116.933757 77 10947ft 171kts
04-Jul-23 13:35 34.888328 -116.877654 76 10945ft 173kts
04-Jul-23 13:36 34.902407 -116.821014 76 10945ft 174kts
04-Jul-23 13:37 34.916516 -116.764120 75 10945ft 174kts
04-Jul-23 13:38 34.930492 -116.707641 75 10945ft 174kts
04-Jul-23 13:39 34.944463 -116.651061 75 10945ft 173kts
04-Jul-23 13:40 34.958311 -116.594826 75 10944ft 173kts
04-Jul-23 13:41 34.978689 -116.541451 64 10944ft 174kts
04-Jul-23 13:42 35.001833 -116.489406 63 10944ft 174kts
04-Jul-23 13:43 35.024857 -116.437603 63 10944ft 173kts
04-Jul-23 13:44 35.047802 -116.385860 63 10944ft 173kts
04-Jul-23 13:45 35.070705 -116.334180 63 10946ft 173kts
04-Jul-23 13:45 35.089865 -116.290846 64 10945ft 173kts
04-Jul-23 13:47 35.116587 -116.230310 63 10944ft 173kts
04-Jul-23 13:48 35.139511 -116.178298 64 10944ft 173kts
04-Jul-23 13:49 35.162286 -116.126548 64 10946ft 173kts
04-Jul-23 13:49 35.181303 -116.083273 64 10946ft 173kts
04-Jul-23 13:50 35.204076 -116.031377 64 10944ft 173kts
04-Jul-23 13:51 35.226886 -115.979324 64 10946ft 173kts
04-Jul-23 13:53 35.253361 -115.918808 64 10950ft 173kts
04-Jul-23 13:54 35.276015 -115.866946 64 10954ft 173kts
04-Jul-23 13:54 35.294874 -115.823706 64 10957ft 173kts
04-Jul-23 13:55 35.320349 -115.773965 50 10960ft 174kts
04-Jul-23 13:56 35.353088 -115.730188 49 10962ft 174kts
04-Jul-23 13:57 35.385938 -115.686511 49 10962ft 174kts
04-Jul-23 13:59 35.424282 -115.635366 49 10962ft 174kts
04-Jul-23 13:59 35.451556 -115.598923 49 10962ft 174kts
04-Jul-23 14:00 35.484417 -115.554967 49 10962ft 174kts
04-Jul-23 14:01 35.517174 -115.511085 49 10962ft 174kts
04-Jul-23 14:02 35.549962 -115.467027 49 10962ft 174kts
04-Jul-23 14:03 35.582529 -115.423300 49 10989ft 174kts
04-Jul-23 14:04 35.615148 -115.379453 50 10988ft 174kts
04-Jul-23 14:05 35.647810 -115.335485 50 10990ft 174kts
04-Jul-23 14:06 35.680545 -115.291443 50 10857ft 179kts
04-Jul-23 14:07 35.714980 -115.244875 50 10302ft 188kts
04-Jul-23 14:08 35.750320 -115.197222 51 9788ft 186kts
04-Jul-23 14:09 35.785173 -115.149970 51 9106ft 187kts
04-Jul-23 14:10 35.827758 -115.119936 359 8394ft 193kts
04-Jul-23 14:11 35.879547 -115.122066 359 8094ft 171kts
04-Jul-23 14:12 35.924058 -115.124133 358 8098ft 152kts
04-Jul-23 14:13 35.964730 -115.126046 359 8101ft 144kts
04-Jul-23 14:14 36.004882 -115.128096 359 8103ft 145kts
04-Jul-23 14:15 36.046478 -115.130291 358 7791ft 160kts
04-Jul-23 14:16 36.094033 -115.132415 359 7005ft 179kts
04-Jul-23 14:17 36.137738 -115.134279 358 7039ft 140kts
04-Jul-23 14:18 36.176351 -115.137831 354 5652ft 132kts
04-Jul-23 14:19 36.210940 -115.139314 27 4239ft 114kts
04-Jul-23 14:20 36.211138 -115.141555 300 3524ft 116kts
04-Jul-23 14:21 36.214435 -115.172527 254 2542ft 84kts
04-Jul-23 14:22 36.213441 -115.193912 267 2190ft 30kts
04-Jul-23 14:23 36.213317 -115.202211 269 2206ft 12kts
04-Jul-23 14:24 36.212839 -115.203292 178 2208ft 0kts
04-Jul-23 14:25 36.212695 -115.203287 178 2208ft 0kts
04-Jul-23 14:26 36.212485 -115.202902 103 2208ft 2kts
04-Jul-23 14:27 36.211236 -115.200113 135 2201ft 19kts
04-Jul-23 14:28 36.209900 -115.199303 314 2197ft 0kts
04-Jul-23 14:29 36.209900 -115.199303 314 2197ft 0kts
04-Jul-23 14:30 36.209900 -115.199303 314 2197ft 0kts
04-Jul-23 14:31 36.209900 -115.199303 314 2197ft 0kts

Navigation Log

Ident Type
Flight plan parsing failed, navigation log unavailable